sensor_id;sensor_type;location;lat;lon;timestamp;P1;durP1;ratioP1;P2;durP2;ratioP2
66143;SDS011;52947;50.842;6.084;2023-04-30T00:01:46;25.63;;;17.52;;
66143;SDS011;52947;50.842;6.084;2023-04-30T00:04:15;27.17;;;16.70;;
66143;SDS011;52947;50.842;6.084;2023-04-30T00:06:44;27.60;;;16.77;;
66143;SDS011;52947;50.842;6.084;2023-04-30T00:09:12;28.42;;;17.38;;
66143;SDS011;52947;50.842;6.084;2023-04-30T00:11:39;24.55;;;16.90;;
66143;SDS011;52947;50.842;6.084;2023-04-30T00:14:07;23.88;;;15.52;;
66143;SDS011;52947;50.842;6.084;2023-04-30T00:16:35;22.80;;;15.55;;
66143;SDS011;52947;50.842;6.084;2023-04-30T00:19:03;25.17;;;15.88;;
66143;SDS011;52947;50.842;6.084;2023-04-30T00:21:31;29.55;;;18.17;;
66143;SDS011;52947;50.842;6.084;2023-04-30T00:24:01;26.05;;;17.85;;
66143;SDS011;52947;50.842;6.084;2023-04-30T00:28:56;30.15;;;18.10;;
66143;SDS011;52947;50.842;6.084;2023-04-30T00:31:24;29.10;;;18.27;;
66143;SDS011;52947;50.842;6.084;2023-04-30T00:33:52;28.77;;;18.92;;
66143;SDS011;52947;50.842;6.084;2023-04-30T00:36:20;28.58;;;17.58;;
66143;SDS011;52947;50.842;6.084;2023-04-30T00:38:48;28.40;;;19.27;;
66143;SDS011;52947;50.842;6.084;2023-04-30T00:41:17;26.48;;;17.42;;
66143;SDS011;52947;50.842;6.084;2023-04-30T00:43:47;25.52;;;16.65;;
66143;SDS011;52947;50.842;6.084;2023-04-30T00:46:15;28.42;;;16.20;;
66143;SDS011;52947;50.842;6.084;2023-04-30T00:48:43;27.50;;;17.15;;
66143;SDS011;52947;50.842;6.084;2023-04-30T00:51:11;29.70;;;16.98;;
66143;SDS011;52947;50.842;6.084;2023-04-30T00:53:39;31.42;;;18.13;;
66143;SDS011;52947;50.842;6.084;2023-04-30T00:56:08;31.90;;;17.65;;
66143;SDS011;52947;50.842;6.084;2023-04-30T00:58:38;29.60;;;19.58;;
66143;SDS011;52947;50.842;6.084;2023-04-30T01:01:07;29.08;;;18.65;;
66143;SDS011;52947;50.842;6.084;2023-04-30T01:03:35;29.17;;;17.45;;
66143;SDS011;52947;50.842;6.084;2023-04-30T01:06:03;29.48;;;18.92;;
66143;SDS011;52947;50.842;6.084;2023-04-30T01:08:31;30.10;;;18.38;;
66143;SDS011;52947;50.842;6.084;2023-04-30T01:11:03;28.00;;;17.83;;
66143;SDS011;52947;50.842;6.084;2023-04-30T01:13:43;29.30;;;17.70;;
66143;SDS011;52947;50.842;6.084;2023-04-30T01:16:21;29.02;;;17.73;;
66143;SDS011;52947;50.842;6.084;2023-04-30T01:18:53;27.75;;;17.88;;
66143;SDS011;52947;50.842;6.084;2023-04-30T01:21:26;31.30;;;18.73;;
66143;SDS011;52947;50.842;6.084;2023-04-30T01:24:03;26.05;;;17.55;;
66143;SDS011;52947;50.842;6.084;2023-04-30T01:26:49;26.77;;;17.98;;
66143;SDS011;52947;50.842;6.084;2023-04-30T01:29:26;27.75;;;17.98;;
66143;SDS011;52947;50.842;6.084;2023-04-30T01:31:55;29.70;;;18.73;;
66143;SDS011;52947;50.842;6.084;2023-04-30T01:34:23;30.05;;;19.15;;
66143;SDS011;52947;50.842;6.084;2023-04-30T01:36:54;29.92;;;18.63;;
66143;SDS011;52947;50.842;6.084;2023-04-30T01:39:38;30.55;;;20.33;;
66143;SDS011;52947;50.842;6.084;2023-04-30T01:42:18;37.13;;;21.10;;
66143;SDS011;52947;50.842;6.084;2023-04-30T01:44:53;32.53;;;19.30;;
66143;SDS011;52947;50.842;6.084;2023-04-30T01:47:32;31.55;;;19.90;;
66143;SDS011;52947;50.842;6.084;2023-04-30T01:50:12;30.80;;;19.30;;
66143;SDS011;52947;50.842;6.084;2023-04-30T01:52:49;25.60;;;16.13;;
66143;SDS011;52947;50.842;6.084;2023-04-30T01:55:20;26.33;;;16.52;;
66143;SDS011;52947;50.842;6.084;2023-04-30T01:57:55;27.10;;;16.85;;
66143;SDS011;52947;50.842;6.084;2023-04-30T02:00:27;26.45;;;15.88;;
66143;SDS011;52947;50.842;6.084;2023-04-30T02:02:56;24.45;;;16.20;;
66143;SDS011;52947;50.842;6.084;2023-04-30T02:05:25;27.35;;;16.92;;
66143;SDS011;52947;50.842;6.084;2023-04-30T02:07:54;29.60;;;16.98;;
66143;SDS011;52947;50.842;6.084;2023-04-30T02:10:23;27.23;;;17.05;;
66143;SDS011;52947;50.842;6.084;2023-04-30T02:12:52;29.30;;;17.42;;
66143;SDS011;52947;50.842;6.084;2023-04-30T02:15:20;30.73;;;17.25;;
66143;SDS011;52947;50.842;6.084;2023-04-30T02:17:49;26.48;;;16.15;;
66143;SDS011;52947;50.842;6.084;2023-04-30T02:20:18;25.92;;;16.50;;
66143;SDS011;52947;50.842;6.084;2023-04-30T02:22:46;26.42;;;16.40;;
66143;SDS011;52947;50.842;6.084;2023-04-30T02:25:14;27.00;;;16.05;;
66143;SDS011;52947;50.842;6.084;2023-04-30T02:27:42;29.83;;;17.30;;
66143;SDS011;52947;50.842;6.084;2023-04-30T02:30:10;23.08;;;14.88;;
66143;SDS011;52947;50.842;6.084;2023-04-30T02:32:38;23.00;;;15.50;;
66143;SDS011;52947;50.842;6.084;2023-04-30T02:35:08;28.00;;;15.38;;
66143;SDS011;52947;50.842;6.084;2023-04-30T02:37:36;23.23;;;15.02;;
66143;SDS011;52947;50.842;6.084;2023-04-30T02:40:04;25.95;;;15.68;;
66143;SDS011;52947;50.842;6.084;2023-04-30T02:42:33;22.83;;;14.82;;
66143;SDS011;52947;50.842;6.084;2023-04-30T02:45:02;24.33;;;15.10;;
66143;SDS011;52947;50.842;6.084;2023-04-30T02:47:30;25.80;;;16.43;;
66143;SDS011;52947;50.842;6.084;2023-04-30T02:49:58;25.75;;;16.13;;
66143;SDS011;52947;50.842;6.084;2023-04-30T02:52:27;25.00;;;15.95;;
66143;SDS011;52947;50.842;6.084;2023-04-30T02:54:55;24.60;;;15.32;;
66143;SDS011;52947;50.842;6.084;2023-04-30T02:57:26;27.00;;;15.30;;
66143;SDS011;52947;50.842;6.084;2023-04-30T02:59:54;27.08;;;15.73;;
66143;SDS011;52947;50.842;6.084;2023-04-30T03:02:22;26.90;;;16.23;;
66143;SDS011;52947;50.842;6.084;2023-04-30T03:04:50;24.67;;;14.73;;
66143;SDS011;52947;50.842;6.084;2023-04-30T03:07:18;25.42;;;15.88;;
66143;SDS011;52947;50.842;6.084;2023-04-30T03:09:48;22.90;;;14.82;;
66143;SDS011;52947;50.842;6.084;2023-04-30T03:12:16;18.52;;;11.73;;
66143;SDS011;52947;50.842;6.084;2023-04-30T03:14:44;25.00;;;13.57;;
66143;SDS011;52947;50.842;6.084;2023-04-30T03:17:12;24.25;;;13.52;;
66143;SDS011;52947;50.842;6.084;2023-04-30T03:19:40;23.98;;;15.68;;
66143;SDS011;52947;50.842;6.084;2023-04-30T03:22:09;25.90;;;15.70;;
66143;SDS011;52947;50.842;6.084;2023-04-30T03:24:36;27.65;;;16.60;;
66143;SDS011;52947;50.842;6.084;2023-04-30T03:27:06;24.98;;;13.77;;
66143;SDS011;52947;50.842;6.084;2023-04-30T03:29:33;25.77;;;14.57;;
66143;SDS011;52947;50.842;6.084;2023-04-30T03:32:01;20.15;;;12.32;;
66143;SDS011;52947;50.842;6.084;2023-04-30T03:34:29;22.58;;;14.10;;
66143;SDS011;52947;50.842;6.084;2023-04-30T03:36:59;16.38;;;11.27;;
66143;SDS011;52947;50.842;6.084;2023-04-30T03:39:29;19.52;;;13.20;;
66143;SDS011;52947;50.842;6.084;2023-04-30T03:41:57;19.35;;;11.07;;
66143;SDS011;52947;50.842;6.084;2023-04-30T03:44:26;24.90;;;12.55;;
66143;SDS011;52947;50.842;6.084;2023-04-30T03:46:54;20.50;;;12.95;;
66143;SDS011;52947;50.842;6.084;2023-04-30T03:49:22;19.23;;;10.95;;
66143;SDS011;52947;50.842;6.084;2023-04-30T03:51:49;17.52;;;11.35;;
66143;SDS011;52947;50.842;6.084;2023-04-30T03:54:17;19.25;;;11.65;;
66143;SDS011;52947;50.842;6.084;2023-04-30T03:56:45;19.38;;;11.35;;
66143;SDS011;52947;50.842;6.084;2023-04-30T03:59:13;19.15;;;11.75;;
66143;SDS011;52947;50.842;6.084;2023-04-30T04:01:42;18.30;;;10.55;;
66143;SDS011;52947;50.842;6.084;2023-04-30T04:06:38;17.52;;;10.48;;
66143;SDS011;52947;50.842;6.084;2023-04-30T04:09:06;17.85;;;11.05;;
66143;SDS011;52947;50.842;6.084;2023-04-30T04:11:34;21.70;;;11.10;;
66143;SDS011;52947;50.842;6.084;2023-04-30T04:14:02;17.55;;;11.18;;
66143;SDS011;52947;50.842;6.084;2023-04-30T04:16:30;16.55;;;11.15;;
66143;SDS011;52947;50.842;6.084;2023-04-30T04:18:59;18.02;;;11.13;;
66143;SDS011;52947;50.842;6.084;2023-04-30T04:21:27;23.77;;;14.20;;
66143;SDS011;52947;50.842;6.084;2023-04-30T04:23:56;26.02;;;14.82;;
66143;SDS011;52947;50.842;6.084;2023-04-30T04:26:25;19.60;;;12.43;;
66143;SDS011;52947;50.842;6.084;2023-04-30T04:28:54;17.25;;;11.00;;
66143;SDS011;52947;50.842;6.084;2023-04-30T04:31:22;20.70;;;11.38;;
66143;SDS011;52947;50.842;6.084;2023-04-30T04:33:50;22.48;;;12.57;;
66143;SDS011;52947;50.842;6.084;2023-04-30T04:36:24;16.13;;;11.88;;
66143;SDS011;52947;50.842;6.084;2023-04-30T04:38:54;16.02;;;10.80;;
66143;SDS011;52947;50.842;6.084;2023-04-30T04:41:23;20.80;;;12.00;;
66143;SDS011;52947;50.842;6.084;2023-04-30T04:43:52;21.20;;;13.57;;
66143;SDS011;52947;50.842;6.084;2023-04-30T04:46:19;19.70;;;12.00;;
66143;SDS011;52947;50.842;6.084;2023-04-30T04:48:49;21.70;;;13.05;;
66143;SDS011;52947;50.842;6.084;2023-04-30T04:51:18;21.60;;;13.95;;
66143;SDS011;52947;50.842;6.084;2023-04-30T04:53:48;19.75;;;12.60;;
66143;SDS011;52947;50.842;6.084;2023-04-30T04:56:17;22.75;;;11.85;;
66143;SDS011;52947;50.842;6.084;2023-04-30T04:58:45;18.92;;;11.38;;
66143;SDS011;52947;50.842;6.084;2023-04-30T05:01:13;17.17;;;12.10;;
66143;SDS011;52947;50.842;6.084;2023-04-30T05:03:44;22.60;;;12.95;;
66143;SDS011;52947;50.842;6.084;2023-04-30T05:06:13;18.33;;;12.05;;
66143;SDS011;52947;50.842;6.084;2023-04-30T05:08:41;23.33;;;13.30;;
66143;SDS011;52947;50.842;6.084;2023-04-30T05:11:10;23.55;;;12.65;;
66143;SDS011;52947;50.842;6.084;2023-04-30T05:13:41;19.65;;;12.45;;
66143;SDS011;52947;50.842;6.084;2023-04-30T05:16:09;21.73;;;13.32;;
66143;SDS011;52947;50.842;6.084;2023-04-30T05:18:37;22.60;;;12.68;;
66143;SDS011;52947;50.842;6.084;2023-04-30T05:21:05;23.42;;;12.95;;
66143;SDS011;52947;50.842;6.084;2023-04-30T05:23:32;30.48;;;14.05;;
66143;SDS011;52947;50.842;6.084;2023-04-30T05:26:00;20.08;;;11.77;;
66143;SDS011;52947;50.842;6.084;2023-04-30T05:28:30;18.77;;;11.03;;
66143;SDS011;52947;50.842;6.084;2023-04-30T05:30:59;21.88;;;11.50;;
66143;SDS011;52947;50.842;6.084;2023-04-30T05:33:26;17.48;;;11.32;;
66143;SDS011;52947;50.842;6.084;2023-04-30T05:35:54;18.20;;;10.45;;
66143;SDS011;52947;50.842;6.084;2023-04-30T05:38:22;15.93;;;10.65;;
66143;SDS011;52947;50.842;6.084;2023-04-30T05:40:50;14.88;;;9.73;;
66143;SDS011;52947;50.842;6.084;2023-04-30T05:43:18;18.27;;;10.90;;
66143;SDS011;52947;50.842;6.084;2023-04-30T05:45:47;15.52;;;8.90;;
66143;SDS011;52947;50.842;6.084;2023-04-30T05:48:15;14.98;;;9.65;;
66143;SDS011;52947;50.842;6.084;2023-04-30T05:50:43;14.05;;;9.73;;
66143;SDS011;52947;50.842;6.084;2023-04-30T05:53:11;17.67;;;10.25;;
66143;SDS011;52947;50.842;6.084;2023-04-30T05:55:39;20.83;;;10.27;;
66143;SDS011;52947;50.842;6.084;2023-04-30T05:58:07;16.08;;;9.90;;
66143;SDS011;52947;50.842;6.084;2023-04-30T06:00:35;15.75;;;9.00;;
66143;SDS011;52947;50.842;6.084;2023-04-30T06:03:06;16.23;;;8.98;;
66143;SDS011;52947;50.842;6.084;2023-04-30T06:05:34;14.70;;;9.73;;
66143;SDS011;52947;50.842;6.084;2023-04-30T06:08:02;18.00;;;10.55;;
66143;SDS011;52947;50.842;6.084;2023-04-30T06:10:30;13.20;;;8.75;;
66143;SDS011;52947;50.842;6.084;2023-04-30T06:12:57;14.85;;;9.27;;
66143;SDS011;52947;50.842;6.084;2023-04-30T06:15:25;16.33;;;10.35;;
66143;SDS011;52947;50.842;6.084;2023-04-30T06:17:53;10.98;;;8.30;;
66143;SDS011;52947;50.842;6.084;2023-04-30T06:20:23;16.45;;;9.40;;
66143;SDS011;52947;50.842;6.084;2023-04-30T06:22:52;13.70;;;9.00;;
66143;SDS011;52947;50.842;6.084;2023-04-30T06:25:20;15.73;;;9.20;;
66143;SDS011;52947;50.842;6.084;2023-04-30T06:27:48;13.00;;;9.23;;
66143;SDS011;52947;50.842;6.084;2023-04-30T06:30:17;15.38;;;9.55;;
66143;SDS011;52947;50.842;6.084;2023-04-30T06:32:45;16.60;;;8.90;;
66143;SDS011;52947;50.842;6.084;2023-04-30T06:35:13;14.27;;;8.93;;
66143;SDS011;52947;50.842;6.084;2023-04-30T06:37:42;15.23;;;9.57;;
66143;SDS011;52947;50.842;6.084;2023-04-30T06:40:10;12.57;;;9.23;;
66143;SDS011;52947;50.842;6.084;2023-04-30T06:42:38;12.98;;;8.85;;
66143;SDS011;52947;50.842;6.084;2023-04-30T06:45:07;16.70;;;9.60;;
66143;SDS011;52947;50.842;6.084;2023-04-30T06:47:35;13.68;;;9.07;;
66143;SDS011;52947;50.842;6.084;2023-04-30T06:50:04;13.48;;;9.05;;
66143;SDS011;52947;50.842;6.084;2023-04-30T06:55:01;16.70;;;11.27;;
66143;SDS011;52947;50.842;6.084;2023-04-30T06:57:29;16.33;;;11.10;;
66143;SDS011;52947;50.842;6.084;2023-04-30T06:59:57;15.53;;;10.10;;
66143;SDS011;52947;50.842;6.084;2023-04-30T07:02:26;13.85;;;9.70;;
66143;SDS011;52947;50.842;6.084;2023-04-30T07:04:54;12.93;;;10.00;;
66143;SDS011;52947;50.842;6.084;2023-04-30T07:07:22;15.87;;;10.70;;
66143;SDS011;52947;50.842;6.084;2023-04-30T07:09:49;16.67;;;9.93;;
66143;SDS011;52947;50.842;6.084;2023-04-30T07:12:20;12.85;;;9.80;;
66143;SDS011;52947;50.842;6.084;2023-04-30T07:14:48;13.85;;;10.35;;
66143;SDS011;52947;50.842;6.084;2023-04-30T07:17:16;15.47;;;11.27;;
66143;SDS011;52947;50.842;6.084;2023-04-30T07:19:44;14.87;;;11.30;;
66143;SDS011;52947;50.842;6.084;2023-04-30T07:22:12;16.17;;;11.60;;
66143;SDS011;52947;50.842;6.084;2023-04-30T07:24:40;16.37;;;12.50;;
66143;SDS011;52947;50.842;6.084;2023-04-30T07:27:08;14.07;;;10.90;;
66143;SDS011;52947;50.842;6.084;2023-04-30T07:29:37;16.98;;;13.07;;
66143;SDS011;52947;50.842;6.084;2023-04-30T07:32:05;14.82;;;10.95;;
66143;SDS011;52947;50.842;6.084;2023-04-30T07:34:33;18.23;;;11.90;;
66143;SDS011;52947;50.842;6.084;2023-04-30T07:37:01;17.40;;;11.90;;
66143;SDS011;52947;50.842;6.084;2023-04-30T07:39:29;18.38;;;12.65;;
66143;SDS011;52947;50.842;6.084;2023-04-30T07:41:57;17.45;;;13.18;;
66143;SDS011;52947;50.842;6.084;2023-04-30T07:44:25;16.07;;;11.93;;
66143;SDS011;52947;50.842;6.084;2023-04-30T07:46:54;16.00;;;12.83;;
66143;SDS011;52947;50.842;6.084;2023-04-30T07:49:22;15.15;;;11.95;;
66143;SDS011;52947;50.842;6.084;2023-04-30T07:51:50;16.95;;;11.93;;
66143;SDS011;52947;50.842;6.084;2023-04-30T07:54:18;14.53;;;11.20;;
66143;SDS011;52947;50.842;6.084;2023-04-30T07:56:46;14.60;;;11.32;;
66143;SDS011;52947;50.842;6.084;2023-04-30T07:59:14;16.10;;;12.15;;
66143;SDS011;52947;50.842;6.084;2023-04-30T08:01:42;19.40;;;12.95;;
66143;SDS011;52947;50.842;6.084;2023-04-30T08:04:12;16.05;;;12.02;;
66143;SDS011;52947;50.842;6.084;2023-04-30T08:06:40;14.73;;;11.27;;
66143;SDS011;52947;50.842;6.084;2023-04-30T08:09:08;15.85;;;12.20;;
66143;SDS011;52947;50.842;6.084;2023-04-30T08:11:36;14.47;;;11.40;;
66143;SDS011;52947;50.842;6.084;2023-04-30T08:14:04;15.40;;;11.53;;
66143;SDS011;52947;50.842;6.084;2023-04-30T08:16:32;13.93;;;10.57;;
66143;SDS011;52947;50.842;6.084;2023-04-30T08:19:00;15.43;;;11.57;;
66143;SDS011;52947;50.842;6.084;2023-04-30T08:21:30;13.35;;;10.18;;
66143;SDS011;52947;50.842;6.084;2023-04-30T08:23:58;14.52;;;9.73;;
66143;SDS011;52947;50.842;6.084;2023-04-30T08:26:26;17.93;;;12.40;;
66143;SDS011;52947;50.842;6.084;2023-04-30T08:28:54;15.20;;;10.73;;
66143;SDS011;52947;50.842;6.084;2023-04-30T08:31:22;17.70;;;9.30;;
66143;SDS011;52947;50.842;6.084;2023-04-30T08:33:50;20.73;;;9.38;;
66143;SDS011;52947;50.842;6.084;2023-04-30T08:36:18;16.27;;;10.63;;
66143;SDS011;52947;50.842;6.084;2023-04-30T08:38:47;13.77;;;9.67;;
66143;SDS011;52947;50.842;6.084;2023-04-30T08:41:15;13.82;;;9.75;;
66143;SDS011;52947;50.842;6.084;2023-04-30T08:43:43;16.80;;;9.70;;
66143;SDS011;52947;50.842;6.084;2023-04-30T08:46:11;15.70;;;11.30;;
66143;SDS011;52947;50.842;6.084;2023-04-30T08:48:39;13.93;;;10.20;;
66143;SDS011;52947;50.842;6.084;2023-04-30T08:51:07;10.07;;;8.30;;
66143;SDS011;52947;50.842;6.084;2023-04-30T08:53:36;15.43;;;9.32;;
66143;SDS011;52947;50.842;6.084;2023-04-30T08:58:36;13.13;;;8.65;;
66143;SDS011;52947;50.842;6.084;2023-04-30T09:01:05;14.48;;;9.32;;
66143;SDS011;52947;50.842;6.084;2023-04-30T09:03:34;12.25;;;9.07;;
66143;SDS011;52947;50.842;6.084;2023-04-30T09:06:03;12.50;;;8.48;;
66143;SDS011;52947;50.842;6.084;2023-04-30T09:08:40;13.65;;;9.38;;
66143;SDS011;52947;50.842;6.084;2023-04-30T09:11:20;15.70;;;9.85;;
66143;SDS011;52947;50.842;6.084;2023-04-30T09:13:49;13.52;;;9.07;;
66143;SDS011;52947;50.842;6.084;2023-04-30T09:16:19;12.85;;;10.10;;
66143;SDS011;52947;50.842;6.084;2023-04-30T09:18:48;12.02;;;7.93;;
66143;SDS011;52947;50.842;6.084;2023-04-30T09:21:16;11.20;;;7.60;;
66143;SDS011;52947;50.842;6.084;2023-04-30T09:23:57;12.13;;;7.53;;
66143;SDS011;52947;50.842;6.084;2023-04-30T09:26:30;13.27;;;8.18;;
66143;SDS011;52947;50.842;6.084;2023-04-30T09:28:59;13.57;;;8.70;;
66143;SDS011;52947;50.842;6.084;2023-04-30T09:31:33;10.48;;;7.03;;
66143;SDS011;52947;50.842;6.084;2023-04-30T09:34:01;9.10;;;6.85;;
66143;SDS011;52947;50.842;6.084;2023-04-30T09:36:29;10.57;;;7.85;;
66143;SDS011;52947;50.842;6.084;2023-04-30T09:39:04;10.20;;;7.60;;
66143;SDS011;52947;50.842;6.084;2023-04-30T09:44:05;11.85;;;7.10;;
66143;SDS011;52947;50.842;6.084;2023-04-30T09:46:33;14.10;;;7.88;;
66143;SDS011;52947;50.842;6.084;2023-04-30T09:49:04;9.27;;;6.78;;
66143;SDS011;52947;50.842;6.084;2023-04-30T09:51:32;12.13;;;8.00;;
66143;SDS011;52947;50.842;6.084;2023-04-30T09:54:01;13.15;;;7.20;;
66143;SDS011;52947;50.842;6.084;2023-04-30T09:56:29;9.65;;;6.35;;
66143;SDS011;52947;50.842;6.084;2023-04-30T09:59:03;10.45;;;6.78;;
66143;SDS011;52947;50.842;6.084;2023-04-30T10:01:33;10.48;;;7.10;;
66143;SDS011;52947;50.842;6.084;2023-04-30T10:04:06;10.07;;;7.07;;
66143;SDS011;52947;50.842;6.084;2023-04-30T10:06:34;13.73;;;7.55;;
66143;SDS011;52947;50.842;6.084;2023-04-30T10:09:02;8.50;;;6.22;;
66143;SDS011;52947;50.842;6.084;2023-04-30T10:11:33;8.38;;;6.25;;
66143;SDS011;52947;50.842;6.084;2023-04-30T10:14:07;10.43;;;7.18;;
66143;SDS011;52947;50.842;6.084;2023-04-30T10:16:39;8.50;;;6.38;;
66143;SDS011;52947;50.842;6.084;2023-04-30T10:19:18;9.35;;;5.18;;
66143;SDS011;52947;50.842;6.084;2023-04-30T10:21:49;9.23;;;6.10;;
66143;SDS011;52947;50.842;6.084;2023-04-30T10:24:18;8.27;;;5.90;;
66143;SDS011;52947;50.842;6.084;2023-04-30T10:26:47;8.90;;;6.47;;
66143;SDS011;52947;50.842;6.084;2023-04-30T10:29:17;14.40;;;6.45;;
66143;SDS011;52947;50.842;6.084;2023-04-30T10:31:46;8.32;;;6.10;;
66143;SDS011;52947;50.842;6.084;2023-04-30T10:34:17;6.80;;;4.75;;
66143;SDS011;52947;50.842;6.084;2023-04-30T10:36:53;6.50;;;4.38;;
66143;SDS011;52947;50.842;6.084;2023-04-30T10:39:24;6.25;;;4.50;;
66143;SDS011;52947;50.842;6.084;2023-04-30T10:42:00;8.07;;;4.07;;
66143;SDS011;52947;50.842;6.084;2023-04-30T10:44:32;5.10;;;3.20;;
66143;SDS011;52947;50.842;6.084;2023-04-30T10:47:00;4.30;;;2.80;;
66143;SDS011;52947;50.842;6.084;2023-04-30T10:49:29;6.20;;;3.17;;
66143;SDS011;52947;50.842;6.084;2023-04-30T10:51:58;5.00;;;3.53;;
66143;SDS011;52947;50.842;6.084;2023-04-30T10:54:27;4.10;;;3.30;;
66143;SDS011;52947;50.842;6.084;2023-04-30T10:57:07;5.97;;;3.92;;
66143;SDS011;52947;50.842;6.084;2023-04-30T10:59:39;5.78;;;3.70;;
66143;SDS011;52947;50.842;6.084;2023-04-30T11:02:10;5.80;;;3.28;;
66143;SDS011;52947;50.842;6.084;2023-04-30T11:07:47;4.80;;;3.13;;
66143;SDS011;52947;50.842;6.084;2023-04-30T11:10:16;4.68;;;2.97;;
66143;SDS011;52947;50.842;6.084;2023-04-30T11:12:48;3.00;;;2.17;;
66143;SDS011;52947;50.842;6.084;2023-04-30T11:15:19;4.97;;;2.78;;
66143;SDS011;52947;50.842;6.084;2023-04-30T11:17:48;4.03;;;2.78;;
66143;SDS011;52947;50.842;6.084;2023-04-30T11:20:18;4.00;;;2.83;;
66143;SDS011;52947;50.842;6.084;2023-04-30T11:22:47;4.40;;;2.47;;
66143;SDS011;52947;50.842;6.084;2023-04-30T11:25:38;4.25;;;3.20;;
66143;SDS011;52947;50.842;6.084;2023-04-30T11:28:06;6.40;;;3.58;;
66143;SDS011;52947;50.842;6.084;2023-04-30T11:30:36;2.90;;;2.05;;
66143;SDS011;52947;50.842;6.084;2023-04-30T11:33:05;3.53;;;1.90;;
66143;SDS011;52947;50.842;6.084;2023-04-30T11:35:33;5.50;;;3.40;;
66143;SDS011;52947;50.842;6.084;2023-04-30T11:38:01;5.07;;;3.45;;
66143;SDS011;52947;50.842;6.084;2023-04-30T11:40:33;5.38;;;3.25;;
66143;SDS011;52947;50.842;6.084;2023-04-30T11:43:02;5.85;;;3.15;;
66143;SDS011;52947;50.842;6.084;2023-04-30T11:45:29;3.88;;;3.10;;
66143;SDS011;52947;50.842;6.084;2023-04-30T11:47:59;3.85;;;2.90;;
66143;SDS011;52947;50.842;6.084;2023-04-30T11:50:31;5.50;;;4.40;;
66143;SDS011;52947;50.842;6.084;2023-04-30T11:53:00;6.97;;;3.80;;
66143;SDS011;52947;50.842;6.084;2023-04-30T11:55:29;5.78;;;4.07;;
66143;SDS011;52947;50.842;6.084;2023-04-30T11:57:57;5.85;;;4.22;;
66143;SDS011;52947;50.842;6.084;2023-04-30T12:00:26;8.10;;;5.40;;
66143;SDS011;52947;50.842;6.084;2023-04-30T12:02:55;8.65;;;5.55;;
66143;SDS011;52947;50.842;6.084;2023-04-30T12:07:54;6.95;;;5.28;;
66143;SDS011;52947;50.842;6.084;2023-04-30T12:10:22;5.35;;;4.28;;
66143;SDS011;52947;50.842;6.084;2023-04-30T12:12:51;6.90;;;5.05;;
66143;SDS011;52947;50.842;6.084;2023-04-30T12:15:20;6.90;;;5.18;;
66143;SDS011;52947;50.842;6.084;2023-04-30T12:17:52;9.63;;;4.97;;
66143;SDS011;52947;50.842;6.084;2023-04-30T12:20:22;7.85;;;5.15;;
66143;SDS011;52947;50.842;6.084;2023-04-30T12:22:54;7.68;;;4.82;;
66143;SDS011;52947;50.842;6.084;2023-04-30T12:25:22;6.97;;;4.47;;
66143;SDS011;52947;50.842;6.084;2023-04-30T12:27:51;7.03;;;4.75;;
66143;SDS011;52947;50.842;6.084;2023-04-30T12:30:19;7.93;;;4.90;;
66143;SDS011;52947;50.842;6.084;2023-04-30T12:35:17;6.35;;;3.75;;
66143;SDS011;52947;50.842;6.084;2023-04-30T12:37:47;5.88;;;4.18;;
66143;SDS011;52947;50.842;6.084;2023-04-30T12:40:19;4.82;;;3.70;;
66143;SDS011;52947;50.842;6.084;2023-04-30T12:42:58;5.43;;;4.20;;
66143;SDS011;52947;50.842;6.084;2023-04-30T12:45:42;5.53;;;4.35;;
66143;SDS011;52947;50.842;6.084;2023-04-30T12:48:12;7.28;;;4.18;;
66143;SDS011;52947;50.842;6.084;2023-04-30T12:50:46;6.03;;;3.90;;
66143;SDS011;52947;50.842;6.084;2023-04-30T12:53:15;5.13;;;3.35;;
66143;SDS011;52947;50.842;6.084;2023-04-30T12:55:44;6.60;;;3.67;;
66143;SDS011;52947;50.842;6.084;2023-04-30T12:58:35;4.60;;;3.35;;
66143;SDS011;52947;50.842;6.084;2023-04-30T13:01:04;18.73;;;14.27;;
66143;SDS011;52947;50.842;6.084;2023-04-30T13:03:32;9.63;;;8.60;;
66143;SDS011;52947;50.842;6.084;2023-04-30T13:06:00;5.07;;;3.83;;
66143;SDS011;52947;50.842;6.084;2023-04-30T13:08:30;13.15;;;11.75;;
66143;SDS011;52947;50.842;6.084;2023-04-30T13:11:09;5.72;;;3.25;;
66143;SDS011;52947;50.842;6.084;2023-04-30T13:13:37;4.82;;;3.80;;
66143;SDS011;52947;50.842;6.084;2023-04-30T13:16:05;5.10;;;4.00;;
66143;SDS011;52947;50.842;6.084;2023-04-30T13:18:33;5.33;;;3.53;;
66143;SDS011;52947;50.842;6.084;2023-04-30T13:21:02;6.78;;;3.08;;
66143;SDS011;52947;50.842;6.084;2023-04-30T13:23:30;7.97;;;3.55;;
66143;SDS011;52947;50.842;6.084;2023-04-30T13:26:15;16.70;;;11.73;;
66143;SDS011;52947;50.842;6.084;2023-04-30T13:28:44;13.30;;;7.75;;
66143;SDS011;52947;50.842;6.084;2023-04-30T13:31:12;16.33;;;9.82;;
66143;SDS011;52947;50.842;6.084;2023-04-30T13:33:40;3.05;;;2.33;;
66143;SDS011;52947;50.842;6.084;2023-04-30T13:36:08;78.90;;;46.25;;
66143;SDS011;52947;50.842;6.084;2023-04-30T13:38:36;58.78;;;34.10;;
66143;SDS011;52947;50.842;6.084;2023-04-30T13:41:04;142.88;;;74.53;;
66143;SDS011;52947;50.842;6.084;2023-04-30T13:43:33;16.52;;;10.55;;
66143;SDS011;52947;50.842;6.084;2023-04-30T13:46:07;82.13;;;44.55;;
66143;SDS011;52947;50.842;6.084;2023-04-30T13:48:35;17.63;;;12.63;;
66143;SDS011;52947;50.842;6.084;2023-04-30T13:51:03;6.88;;;4.20;;
66143;SDS011;52947;50.842;6.084;2023-04-30T13:53:31;9.43;;;6.25;;
66143;SDS011;52947;50.842;6.084;2023-04-30T13:55:59;12.73;;;6.93;;
66143;SDS011;52947;50.842;6.084;2023-04-30T13:58:28;5.53;;;3.35;;
66143;SDS011;52947;50.842;6.084;2023-04-30T14:00:57;4.03;;;2.67;;
66143;SDS011;52947;50.842;6.084;2023-04-30T14:03:25;3.58;;;2.88;;
66143;SDS011;52947;50.842;6.084;2023-04-30T14:05:53;4.75;;;2.97;;
66143;SDS011;52947;50.842;6.084;2023-04-30T14:08:21;3.85;;;2.17;;
66143;SDS011;52947;50.842;6.084;2023-04-30T14:10:49;4.03;;;2.40;;
66143;SDS011;52947;50.842;6.084;2023-04-30T14:13:17;5.53;;;2.50;;
66143;SDS011;52947;50.842;6.084;2023-04-30T14:15:45;2.40;;;2.17;;
66143;SDS011;52947;50.842;6.084;2023-04-30T14:18:14;3.28;;;2.33;;
66143;SDS011;52947;50.842;6.084;2023-04-30T14:20:43;2.95;;;2.35;;
66143;SDS011;52947;50.842;6.084;2023-04-30T14:23:11;2.63;;;2.20;;
66143;SDS011;52947;50.842;6.084;2023-04-30T14:25:39;4.97;;;3.00;;
66143;SDS011;52947;50.842;6.084;2023-04-30T14:28:08;4.55;;;3.08;;
66143;SDS011;52947;50.842;6.084;2023-04-30T14:30:37;3.90;;;2.25;;
66143;SDS011;52947;50.842;6.084;2023-04-30T14:33:05;3.22;;;2.20;;
66143;SDS011;52947;50.842;6.084;2023-04-30T14:35:34;4.18;;;2.40;;
66143;SDS011;52947;50.842;6.084;2023-04-30T14:38:02;3.20;;;2.50;;
66143;SDS011;52947;50.842;6.084;2023-04-30T14:40:30;6.13;;;2.38;;
66143;SDS011;52947;50.842;6.084;2023-04-30T14:42:58;2.95;;;1.83;;
66143;SDS011;52947;50.842;6.084;2023-04-30T14:45:26;5.18;;;2.65;;
66143;SDS011;52947;50.842;6.084;2023-04-30T14:47:54;4.78;;;2.30;;
66143;SDS011;52947;50.842;6.084;2023-04-30T14:50:22;2.47;;;1.75;;
66143;SDS011;52947;50.842;6.084;2023-04-30T14:52:52;2.72;;;2.40;;
66143;SDS011;52947;50.842;6.084;2023-04-30T14:55:20;2.95;;;2.15;;
66143;SDS011;52947;50.842;6.084;2023-04-30T14:57:47;3.63;;;2.60;;
66143;SDS011;52947;50.842;6.084;2023-04-30T15:00:16;3.55;;;2.38;;
66143;SDS011;52947;50.842;6.084;2023-04-30T15:02:44;4.45;;;2.13;;
66143;SDS011;52947;50.842;6.084;2023-04-30T15:05:12;4.05;;;2.20;;